Latest Weather Observations for Camooweal

IDD60801

Issued at 10:35 am CST Sunday 20 April 2014 (issued every 30 minutes, with the page automatically refreshed every 10 minutes)

About weather observations | Map of weather stations | Latest weather observations for NT | Other Formats
Station Details ID: 037010 Name: CAMOOWEAL TOWNSHIP Lat: -19.92 Lon: 138.12 Height: 231.2 m
Data from the previous 72 hours. | See also: Recent months at Camooweal
Date/Time
CST
Temp
°C
App
Temp
°C
Dew
Point
Rel
Hum
%
Delta-T
°C
Wind Press
QNH
hPa
Press
MSL
hPa
Rain
since 9 am
mm
Dir
 
Spd
km/h
Gust
km/h
Spd
kts
Gust
kts
20/10:30am 29.6 25.0 3.5 19 13.3 SE 17 24 9 13 1016.2 - 0.0
20/10:00am 28.4 23.5 4.0 21 12.5 ESE 19 24 10 13 1016.5 - 0.0
20/09:30am 27.2 22.1 4.3 23 11.7 SE 20 28 11 15 1016.3 - 0.0
20/09:00am 25.5 20.0 4.0 25 10.8 SE 22 32 12 17 1016.2 - 0.0
20/08:30am 23.7 18.7 3.6 27 9.9 SSE 19 26 10 14 1016.2 1014.9 0.0
20/08:00am 21.5 18.1 4.1 32 8.5 SSE 11 17 6 9 1016.0 - 0.0
20/07:59am 21.4 18.0 4.0 32 8.5 S 11 17 6 9 1015.9 - 0.0
20/07:30am 16.4 13.4 1.7 37 6.6 SSW 7 9 4 5 1015.7 - 0.0
20/07:00am 14.4 11.5 2.6 45 5.3 WSW 7 11 4 6 1015.5 - 0.0
20/06:30am 13.7 10.8 1.7 44 5.3 SSW 6 7 3 4 1014.9 - 0.0
20/06:00am 13.6 10.6 1.9 45 5.1 SSW 7 9 4 5 1014.6 - 0.0
20/05:30am 14.2 10.7 1.2 41 5.7 SW 9 11 5 6 1014.4 1013.2 0.0
20/05:00am 14.2 11.2 2.1 44 5.4 SSW 7 9 4 5 1014.1 - 0.0
20/04:30am 15.1 12.3 2.0 41 5.9 SSW 6 7 3 4 1013.8 - 0.0
20/04:00am 15.1 12.0 1.3 39 6.1 SSW 7 9 4 5 1013.6 - 0.0
20/03:30am 15.1 11.9 0.9 38 6.2 SSW 7 9 4 5 1013.7 - 0.0
20/03:00am 16.3 12.8 1.2 36 6.7 SSW 9 9 5 5 1013.7 - 0.0
20/02:30am 16.7 13.0 -0.1 32 7.3 SSW 9 11 5 6 1013.7 1012.4 0.0
20/02:00am 17.9 14.7 0.6 31 7.7 SSW 7 11 4 6 1013.9 - 0.0
20/01:30am 18.6 15.4 0.7 30 8.0 SW 7 9 4 5 1014.0 - 0.0
20/01:00am 18.9 15.2 0.0 28 8.4 S 9 11 5 6 1014.2 - 0.0
20/12:30am 20.1 16.5 0.5 27 8.9 S 9 13 5 7 1014.4 - 0.0
20/12:00am 21.5 17.7 -0.5 23 9.9 SSE 9 13 5 7 1014.6 - 0.0
 
Date/Time
CST
Temp
°C
App
Temp
°C
Dew
Point
Rel
Hum
%
Delta-T
°C
Wind Press
QNH
hPa
Press
MSL
hPa
Rain
since 9 am
mm
Dir
 
Spd
km/h
Gust
km/h
Spd
kts
Gust
kts
19/11:30pm 22.7 17.8 -0.7 21 10.5 S 15 19 8 10 1014.6 1013.4 0.0
19/11:00pm 22.1 17.6 -0.6 22 10.2 S 13 17 7 9 1014.7 - 0.0
19/10:30pm 23.2 18.3 -0.3 21 10.7 S 15 17 8 9 1014.9 - 0.0
19/10:00pm 22.0 18.7 2.2 27 9.4 S 9 13 5 7 1015.0 - 0.0
19/09:30pm 22.7 19.3 1.7 25 9.9 SW 9 11 5 6 1015.0 - 0.0
19/09:00pm 23.6 20.7 2.4 25 10.2 SSW 7 9 4 5 1014.7 - 0.0
19/08:30pm 23.9 21.2 2.7 25 10.3 S 6 7 3 4 1014.4 1013.2 0.0
19/08:00pm 24.2 20.7 1.2 22 10.9 SSW 9 11 5 6 1014.2 - 0.0
19/07:30pm 25.3 21.8 1.4 21 11.4 S 9 11 5 6 1013.9 - 0.0
19/07:00pm 26.4 22.1 0.9 19 12.2 S 13 15 7 8 1013.5 - 0.0
19/06:30pm 28.0 24.0 0.7 17 13.2 S 11 13 6 7 1013.2 - 0.0
19/06:00pm 29.9 25.9 0.5 15 14.3 SSE 11 13 6 7 1012.9 - 0.0
19/05:30pm 32.0 27.2 0.2 13 15.6 SSE 15 20 8 11 1012.6 1011.3 0.0
19/05:00pm 32.8 28.5 0.8 13 15.9 S 13 20 7 11 1012.3 - 0.0
19/04:30pm 33.3 29.2 0.1 12 16.4 SSE 11 19 6 10 1012.2 - 0.0
19/04:00pm 33.4 29.0 0.1 12 16.5 S 13 19 7 10 1012.2 - 0.0
19/03:30pm 33.8 29.4 0.5 12 16.6 SE 13 19 7 10 1012.4 - 0.0
19/03:00pm 33.6 30.0 0.3 12 16.5 SSE 9 17 5 9 1012.5 - 0.0
19/02:30pm 33.6 29.1 2.4 14 16.0 SW 15 20 8 11 1012.6 1011.3 0.0
19/02:00pm 33.5 30.6 1.3 13 16.3 WNW 6 9 3 5 1013.0 - 0.0
19/01:30pm 33.5 30.0 1.3 13 16.3 SSW 9 17 5 9 1013.3 - 0.0
19/01:00pm 33.6 28.0 1.4 13 16.3 SSE 20 30 11 16 1013.8 - 0.0
19/12:30pm 32.9 28.2 0.9 13 16.0 ESE 15 22 8 12 1014.3 - 0.0
19/12:00pm 32.8 27.5 -0.3 12 16.2 ESE 17 30 9 16 1014.9 - 0.0
19/11:30am 32.4 27.3 0.5 13 15.8 ESE 17 35 9 19 1015.5 1014.2 0.0
19/11:00am 31.4 25.8 -0.3 13 15.4 ESE 19 26 10 14 1016.1 - 0.0
19/10:30am 30.8 25.0 0.2 14 14.9 ESE 20 30 11 16 1016.5 - 0.0
19/10:00am 29.6 24.6 1.1 16 14.0 ESE 17 24 9 13 1017.0 - 0.0
19/09:30am 28.4 22.6 0.2 16 13.5 ESE 20 28 11 15 1017.0 - 0.0
19/09:00am 26.6 20.5 0.4 18 12.4 ESE 22 32 12 17 1017.0 - 0.0
19/08:30am 24.5 19.0 0.8 21 11.1 SE 19 24 10 13 1017.1 1015.8 0.0
19/08:00am 22.6 18.3 1.0 24 10.1 SSE 13 19 7 10 1017.0 - 0.0
19/07:30am 18.0 15.0 1.9 34 7.4 SSW 7 9 4 5 1016.9 - 0.0
19/07:00am 15.4 11.8 2.9 43 5.7 SSW 11 11 6 6 1016.6 - 0.0
19/06:30am 14.8 11.0 1.7 41 5.8 SSW 11 11 6 6 1016.3 - 0.0
19/06:00am 15.5 11.9 2.7 42 5.8 SSW 11 13 6 7 1016.0 - 0.0
19/05:30am 16.4 12.8 0.9 35 6.8 SSW 9 13 5 7 1015.8 1014.5 0.0
19/05:00am 17.3 13.5 -0.4 30 7.7 SSW 9 11 5 6 1015.6 - 0.0
19/04:30am 20.4 15.8 -0.8 24 9.4 SSE 13 17 7 9 1015.3 - 0.0
19/04:00am 21.4 16.4 -1.2 22 10.0 SSE 15 19 8 10 1015.3 - 0.0
19/03:30am 22.0 16.6 -1.3 21 10.3 SSE 17 28 9 15 1015.2 - 0.0
19/03:00am 22.3 16.6 -1.1 21 10.4 SSE 19 24 10 13 1015.2 - 0.0
19/02:30am 22.8 17.4 -1.3 20 10.7 SSE 17 22 9 12 1015.5 1014.2 0.0
19/02:00am 23.4 17.7 -0.8 20 11.0 SSE 19 26 10 14 1015.6 - 0.0
19/01:30am 23.2 17.8 -1.0 20 10.9 SSE 17 20 9 11 1015.9 - 0.0
19/01:00am 23.2 18.2 -1.0 20 10.9 SSE 15 20 8 11 1016.0 - 0.0
19/12:30am 23.6 18.6 -1.3 19 11.2 SSE 15 20 8 11 1016.3 - 0.0
19/12:00am 23.6 19.0 -1.3 19 11.2 SSE 13 19 7 10 1016.5 - 0.0
 
Date/Time
CST
Temp
°C
App
Temp
°C
Dew
Point
Rel
Hum
%
Delta-T
°C
Wind Press
QNH
hPa
Press
MSL
hPa
Rain
since 9 am
mm
Dir
 
Spd
km/h
Gust
km/h
Spd
kts
Gust
kts
18/11:30pm 24.2 19.1 -1.6 18 11.6 SSE 15 20 8 11 1016.7 1015.4 0.0
18/11:00pm 25.3 19.2 -2.3 16 12.3 SSE 20 28 11 15 1016.6 - 0.0
18/10:30pm 25.8 19.6 -2.8 15 12.7 SSE 20 28 11 15 1016.5 - 0.0
18/10:00pm 26.2 20.1 -2.4 15 12.9 SSE 20 32 11 17 1016.5 - 0.0
18/09:30pm 26.8 20.7 -2.0 15 13.1 SSE 20 28 11 15 1016.4 - 0.0
18/09:00pm 27.1 21.2 -0.9 16 13.0 S 20 28 11 15 1016.3 - 0.0
18/08:30pm 27.8 22.1 0.5 17 13.1 S 20 28 11 15 1016.1 1014.8 0.0
18/08:00pm 28.2 23.0 2.4 19 12.8 S 19 26 10 14 1015.6 - 0.0
18/07:30pm 28.6 24.2 2.7 19 13.0 S 15 20 8 11 1015.2 - 0.0
18/07:00pm 28.5 24.2 3.4 20 12.7 S 15 19 8 10 1015.0 - 0.0
18/06:30pm 30.1 25.6 2.4 17 13.9 S 15 20 8 11 1014.6 - 0.0
18/06:00pm 31.1 26.2 2.3 16 14.6 S 17 22 9 12 1014.2 - 0.0
18/05:30pm 32.3 27.5 2.4 15 15.3 SSE 17 20 9 11 1013.8 1012.5 0.0
18/05:00pm 33.3 29.2 2.2 14 15.9 SSE 13 17 7 9 1013.6 - 0.0
18/04:30pm 33.2 28.3 2.1 14 15.9 SSE 17 26 9 14 1013.3 - 0.0
18/04:00pm 33.2 28.5 3.1 15 15.6 S 17 30 9 16 1013.2 - 0.0
18/03:30pm 34.6 28.6 3.2 14 16.5 S 24 32 13 17 1013.1 - 0.0
18/03:00pm 34.0 29.0 3.7 15 15.9 SSW 19 26 10 14 1013.1 - 0.0
18/02:30pm 34.3 29.2 3.0 14 16.3 SSE 19 26 10 14 1013.3 1012.0 0.0
18/02:00pm 34.3 30.3 3.0 14 16.3 ESE 13 24 7 13 1013.5 - 0.0
18/01:30pm 34.3 29.0 3.0 14 16.3 S 20 28 11 15 1013.8 - 0.0
18/01:00pm 34.0 30.2 3.7 15 15.9 SSE 13 20 7 11 1014.3 - 0.0
18/12:30pm 33.9 29.5 2.7 14 16.1 ESE 15 22 8 12 1014.8 - 0.0
18/12:00pm 33.4 29.1 3.3 15 15.7 E 15 22 8 12 1015.2 - 0.0
18/11:30am 32.7 27.3 2.7 15 15.4 E 20 28 11 15 1016.0 1014.7 0.0
18/11:00am 31.8 25.9 2.0 15 15.1 E 22 32 12 17 1016.5 - 0.0
18/10:30am 31.2 25.4 2.4 16 14.6 ESE 22 32 12 17 1016.6 - 0.0
18/10:00am 30.7 24.5 2.0 16 14.4 ESE 24 32 13 17 1016.8 - 0.0
18/09:30am 29.3 23.3 0.9 16 13.9 ESE 22 35 12 19 1016.9 - 0.0
18/09:00am 27.0 21.6 1.4 19 12.4 ESE 19 32 10 17 1016.9 - 0.0
18/08:30am 24.9 20.4 2.4 23 10.9 SSE 15 20 8 11 1016.7 1015.4 0.0
18/08:00am 22.7 18.7 2.8 27 9.6 SSE 13 19 7 10 1016.6 - 0.0
18/07:30am 20.0 16.5 3.7 34 7.8 S 11 13 6 7 1016.4 - 0.0
18/07:00am 16.9 13.6 4.6 44 5.9 SSW 11 11 6 6 1016.1 - 0.0
18/06:30am 16.2 13.2 4.3 45 5.6 SSW 9 13 5 7 1016.1 - 0.0
18/06:00am 16.4 13.5 4.8 46 5.6 SSW 9 11 5 6 1015.9 - 0.0
18/05:30am 16.7 13.4 4.4 44 5.9 SSW 11 11 6 6 1015.6 1014.3 0.0
18/05:00am 17.6 14.7 4.9 43 6.1 SSW 9 11 5 6 1015.5 - 0.0
18/04:30am 18.4 15.8 4.2 39 6.8 S 7 9 4 5 1015.5 - 0.0
18/04:00am 18.6 15.2 4.0 38 7.0 S 11 13 6 7 1015.2 - 0.0
18/03:30am 19.0 15.7 4.7 39 7.0 SSW 11 13 6 7 1015.2 - 0.0
18/03:00am 20.3 16.5 3.9 34 7.9 S 13 15 7 8 1015.2 - 0.0
18/02:30am 21.4 18.0 4.0 32 8.5 S 11 13 6 7 1015.3 1014.1 0.0
18/02:00am 22.8 19.1 4.3 30 9.2 S 13 17 7 9 1015.3 - 0.0
18/01:30am 23.6 19.4 4.0 28 9.7 S 15 19 8 10 1015.6 - 0.0
18/01:00am 24.1 19.9 4.0 27 10.0 S 15 20 8 11 1016.0 - 0.0
18/12:30am 25.0 20.2 4.7 27 10.3 S 19 24 10 13 1016.2 - 0.0
18/12:00am 25.4 20.7 5.1 27 10.4 SSE 19 24 10 13 1016.4 - 0.0
 
Date/Time
CST
Temp
°C
App
Temp
°C
Dew
Point
Rel
Hum
%
Delta-T
°C
Wind Press
QNH
hPa
Press
MSL
hPa
Rain
since 9 am
mm
Dir
 
Spd
km/h
Gust
km/h
Spd
kts
Gust
kts
17/11:30pm 25.9 21.0 4.9 26 10.7 SSE 20 26 11 14 1016.4 1015.1 0.0
17/11:00pm 26.6 21.4 5.5 26 11.0 SSE 22 30 12 16 1016.3 - 0.0
17/10:30pm 27.2 21.7 6.0 26 11.2 SSE 24 33 13 18 1016.3 - 0.0
17/10:00pm 27.6 23.0 6.4 26 11.3 S 20 28 11 15 1016.3 - 0.0
17/09:30pm 28.2 23.2 6.3 25 11.6 S 22 32 12 17 1016.1 - 0.0
17/09:00pm 28.7 24.1 6.7 25 11.8 S 20 30 11 16 1015.9 - 0.0
17/08:30pm 28.9 24.6 6.9 25 11.9 S 19 26 10 14 1015.6 1014.3 0.0
17/08:00pm 29.8 25.3 7.1 24 12.3 S 20 26 11 14 1015.1 - 0.0
17/07:30pm 30.0 26.1 7.2 24 12.4 S 17 20 9 11 1014.6 - 0.0
17/07:00pm 29.4 26.7 7.3 25 12.0 S 11 17 6 9 1014.1 - 0.0
17/06:30pm 30.6 27.6 7.7 24 12.6 SSE 13 17 7 9 1013.8 - 0.0
17/06:00pm 32.1 29.1 7.7 22 13.6 SSE 13 19 7 10 1013.5 - 0.0
17/05:30pm 33.3 29.4 7.3 20 14.4 SSE 17 24 9 13 1013.0 1011.7 0.0
17/05:00pm 33.8 30.6 8.4 21 14.4 S 15 24 8 13 1012.6 - 0.0
17/04:30pm 34.5 31.1 7.5 19 15.1 SSE 15 24 8 13 1012.5 - 0.0
17/04:00pm 35.1 31.8 8.0 19 15.3 S 15 20 8 11 1012.5 - 0.0
17/03:30pm 34.8 31.8 9.3 21 14.7 SSE 15 24 8 13 1012.4 - 0.0
17/03:00pm 35.3 32.8 8.2 19 15.4 E 11 32 6 17 1012.7 - 0.0
17/02:30pm 35.3 33.0 8.9 20 15.2 ENE 11 20 6 11 1013.0 1011.7 0.0
17/02:00pm 35.1 33.3 9.5 21 14.8 E 9 26 5 14 1013.2 - 0.0
17/01:30pm 34.9 32.3 9.3 21 14.8 SE 13 24 7 13 1013.4 - 0.0
17/01:00pm 34.2 31.2 9.4 22 14.3 SSE 15 26 8 14 1013.9 - 0.0
17/12:30pm 33.7 30.6 10.3 24 13.6 ESE 17 26 9 14 1014.4 - 0.0
17/12:00pm 32.6 29.8 10.0 25 13.1 ESE 15 26 8 14 1015.0 - 0.0
17/11:30am 32.5 29.1 10.5 26 12.8 ESE 19 28 10 15 1015.7 1014.4 0.0
17/11:00am 31.6 28.4 9.8 26 12.5 ESE 17 28 9 15 1016.2 - 0.0
17/10:30am 30.5 26.4 8.8 26 12.2 ESE 20 28 11 15 1016.5 - 0.0

Other Formats:

Comma delimited format used in spreadsheet applications
http://www.bom.gov.au/fwo/IDD60801/IDD60801.94255.axf

JavaScript Object Notation format (JSON) in row-major order
http://www.bom.gov.au/fwo/IDD60801/IDD60801.94255.json